createdAt,value
2019-06-20T00:01:27.331Z,99945
2019-06-20T00:03:56.171Z,99939
2019-06-20T00:06:24.999Z,99915
2019-06-20T00:08:54.419Z,99912
2019-06-20T00:11:23.990Z,99909
2019-06-20T00:13:52.831Z,99920
2019-06-20T00:16:21.673Z,99936
2019-06-20T00:18:50.502Z,99949
2019-06-20T00:21:19.353Z,99957
2019-06-20T00:23:48.173Z,99978
2019-06-20T00:26:17.019Z,99980
2019-06-20T00:28:45.850Z,100027
2019-06-20T00:31:15.458Z,100009
2019-06-20T00:33:44.346Z,100032
2019-06-20T00:36:13.149Z,100027
2019-06-20T00:38:41.993Z,100031
2019-06-20T00:41:10.825Z,100024
2019-06-20T00:43:40.394Z,100038
2019-06-20T00:46:09.285Z,100031
2019-06-20T00:48:38.096Z,100028
2019-06-20T00:51:06.947Z,100017
2019-06-20T00:53:35.795Z,100018
2019-06-20T00:56:04.663Z,100010
2019-06-20T00:58:34.263Z,100009
2019-06-20T01:01:03.131Z,100017
2019-06-20T01:03:31.949Z,100020
2019-06-20T01:06:01.541Z,100020
2019-06-20T01:08:30.368Z,100031
2019-06-20T01:10:59.223Z,100021
2019-06-20T01:13:33.551Z,100027
2019-06-20T01:15:58.411Z,100027
2019-06-20T01:18:27.237Z,100031
2019-06-20T01:20:56.834Z,100023
2019-06-20T01:23:25.668Z,100031
2019-06-20T01:25:54.515Z,100022
2019-06-20T01:28:24.099Z,100017
2019-06-20T01:30:52.931Z,100016
2019-06-20T01:33:21.770Z,100017
2019-06-20T01:35:50.618Z,100023
2019-06-20T01:38:19.465Z,100022
2019-06-20T01:40:48.317Z,100019
2019-06-20T01:43:17.171Z,100019
2019-06-20T01:45:46.745Z,100018
2019-06-20T01:48:15.583Z,100025
2019-06-20T01:50:44.445Z,100016
2019-06-20T01:53:13.260Z,100011
2019-06-20T01:55:42.100Z,100016
2019-06-20T01:58:10.941Z,100025
2019-06-20T02:00:42.692Z,100030
2019-06-20T02:03:11.536Z,100026
2019-06-20T02:05:40.376Z,100024
2019-06-20T02:08:09.229Z,100022
2019-06-20T02:10:38.082Z,100015
2019-06-20T02:13:06.917Z,100023
2019-06-20T02:15:36.496Z,100025
2019-06-20T02:18:05.334Z,100029
2019-06-20T02:20:35.895Z,100026
2019-06-20T02:23:04.707Z,100028
2019-06-20T02:25:33.548Z,100040
2019-06-20T02:28:02.390Z,100041
2019-06-20T02:30:31.236Z,100040
2019-06-20T02:33:00.084Z,100041
2019-06-20T02:35:29.671Z,100049
2019-06-20T02:37:58.513Z,100046
2019-06-20T02:40:27.343Z,100049
2019-06-20T02:42:56.179Z,100056
2019-06-20T02:45:25.022Z,100063
2019-06-20T02:47:53.849Z,100060
2019-06-20T02:50:23.423Z,100065
2019-06-20T02:52:52.261Z,100066
2019-06-20T02:55:21.117Z,100068
2019-06-20T02:57:49.957Z,100068
2019-06-20T03:03:03.044Z,100083
2019-06-20T03:05:31.885Z,100088
2019-06-20T03:08:00.722Z,100090
2019-06-20T03:10:30.313Z,100092
2019-06-20T03:12:59.149Z,100110
2019-06-20T03:15:27.997Z,100110
2019-06-20T03:17:56.856Z,100110
2019-06-20T03:20:25.705Z,100114
2019-06-20T03:22:54.535Z,100112
2019-06-20T03:25:23.380Z,100108
2019-06-20T03:27:52.209Z,100116
2019-06-20T03:30:21.052Z,100106
2019-06-20T03:32:50.637Z,100092
2019-06-20T03:35:19.478Z,100112
2019-06-20T03:37:50.297Z,100108
2019-06-20T03:40:17.146Z,100116
2019-06-20T03:42:46.004Z,100118
2019-06-20T03:45:14.828Z,100117
2019-06-20T03:47:43.677Z,100121
2019-06-20T03:50:13.273Z,100119
2019-06-20T03:52:42.220Z,100128
2019-06-20T03:55:11.065Z,100119
2019-06-20T03:57:39.915Z,100116
2019-06-20T04:00:08.763Z,100121
2019-06-20T04:02:37.609Z,100117
2019-06-20T04:05:06.465Z,100107
2019-06-20T04:07:35.328Z,100114
2019-06-20T04:10:04.139Z,100110
2019-06-20T04:12:32.991Z,100111
2019-06-20T04:15:15.036Z,100107
2019-06-20T04:17:30.668Z,100112
2019-06-20T04:20:00.268Z,100115
2019-06-20T04:22:29.139Z,100120
2019-06-20T04:24:57.943Z,100117
2019-06-20T04:27:26.813Z,100116
2019-06-20T04:29:55.710Z,100116
2019-06-20T04:32:24.495Z,100123
2019-06-20T04:34:53.317Z,100130
2019-06-20T04:37:22.162Z,100129
2019-06-20T04:39:51.013Z,100118
2019-06-20T04:42:19.882Z,100125
2019-06-20T04:44:48.703Z,100125
2019-06-20T04:47:17.541Z,100123
2019-06-20T04:49:46.379Z,100124
2019-06-20T04:52:15.224Z,100112
2019-06-20T04:54:44.064Z,100128
2019-06-20T04:57:12.897Z,100121
2019-06-20T04:59:41.739Z,100131
2019-06-20T05:02:10.584Z,100134
2019-06-20T05:04:39.423Z,100130
2019-06-20T05:07:13.588Z,100120
2019-06-20T05:09:42.440Z,100137
2019-06-20T05:12:11.283Z,100142
2019-06-20T05:14:40.871Z,100136
2019-06-20T05:17:09.751Z,100147
2019-06-20T05:19:38.581Z,100137
2019-06-20T05:22:07.433Z,100143
2019-06-20T05:24:36.268Z,100141
2019-06-20T05:27:05.117Z,100144
2019-06-20T05:29:33.950Z,100148
2019-06-20T05:32:02.795Z,100147
2019-06-20T05:34:31.642Z,100145
2019-06-20T05:37:00.501Z,100151
2019-06-20T05:39:30.086Z,100147
2019-06-20T05:41:58.925Z,100141
2019-06-20T05:44:27.778Z,100142
2019-06-20T05:47:11.894Z,100148
2019-06-20T05:49:26.192Z,100137
2019-06-20T05:51:55.048Z,100141
2019-06-20T05:54:24.484Z,100134
2019-06-20T05:56:53.323Z,100143
2019-06-20T05:59:22.157Z,100143
2019-06-20T06:01:51.753Z,100145
2019-06-20T06:04:21.354Z,100143
2019-06-20T06:06:50.765Z,100140
2019-06-20T06:09:20.367Z,100151
2019-06-20T06:11:49.961Z,100147
2019-06-20T06:14:18.807Z,100143
2019-06-20T06:16:47.645Z,100153
2019-06-20T06:19:16.525Z,100133
2019-06-20T06:21:45.335Z,100154
2019-06-20T06:24:14.932Z,100166
2019-06-20T06:26:43.760Z,100155
2019-06-20T06:29:12.910Z,100157
2019-06-20T06:31:41.729Z,100162
2019-06-20T06:34:10.627Z,100158
2019-06-20T06:36:39.419Z,100155
2019-06-20T06:39:08.246Z,100155
2019-06-20T06:41:37.086Z,100168
2019-06-20T06:44:08.362Z,100164
2019-06-20T06:46:45.869Z,100172
2019-06-20T06:49:03.629Z,100169
2019-06-20T06:51:32.467Z,100170
2019-06-20T06:54:01.297Z,100164
2019-06-20T06:56:30.153Z,100170
2019-06-20T06:58:58.987Z,100174
2019-06-20T07:01:27.865Z,100174
2019-06-20T07:03:56.743Z,100176
2019-06-20T07:06:25.558Z,100170
2019-06-20T07:08:55.152Z,100167
2019-06-20T07:11:23.997Z,100179
2019-06-20T07:13:52.883Z,100185
2019-06-20T07:16:21.739Z,100177
2019-06-20T07:18:51.662Z,100173
2019-06-20T07:21:20.443Z,100167
2019-06-20T07:23:49.360Z,100159
2019-06-20T07:26:18.235Z,100155
2019-06-20T07:28:47.038Z,100166
2019-06-20T07:31:15.873Z,100161
2019-06-20T07:33:44.737Z,100154
2019-06-20T07:36:13.591Z,100154
2019-06-20T07:38:42.446Z,100148
2019-06-20T07:41:12.066Z,100158
2019-06-20T07:43:40.877Z,100153
2019-06-20T07:46:10.453Z,100163
2019-06-20T07:48:39.898Z,100163
2019-06-20T07:51:08.769Z,100158
2019-06-20T07:53:38.352Z,100165
2019-06-20T07:56:09.405Z,100164
2019-06-20T07:58:36.038Z,100163
2019-06-20T08:01:05.656Z,100159
2019-06-20T08:03:35.270Z,100165
2019-06-20T08:06:04.126Z,100158
2019-06-20T08:08:32.994Z,100157
2019-06-20T08:11:01.843Z,100158
2019-06-20T08:13:31.433Z,100155
2019-06-20T08:16:03.518Z,100161
2019-06-20T08:18:29.144Z,100156
2019-06-20T08:20:57.984Z,100157
2019-06-20T08:23:26.842Z,100156
2019-06-20T08:25:57.029Z,100152
2019-06-20T08:28:24.524Z,100155
2019-06-20T08:30:53.396Z,100158
2019-06-20T08:33:22.233Z,100152
2019-06-20T08:35:51.092Z,100150
2019-06-20T08:38:19.935Z,100154
2019-06-20T08:40:48.801Z,100150
2019-06-20T08:43:17.632Z,100148
2019-06-20T08:45:46.475Z,100151
2019-06-20T08:48:16.091Z,100146
2019-06-20T08:50:44.952Z,100152
2019-06-20T08:53:13.786Z,100155
2019-06-20T08:55:43.373Z,100162
2019-06-20T08:58:12.962Z,100155
2019-06-20T09:00:41.802Z,100151
2019-06-20T09:03:10.667Z,100156
2019-06-20T09:05:39.504Z,100163
2019-06-20T09:08:11.344Z,100154
2019-06-20T09:10:37.930Z,100156
2019-06-20T09:13:06.778Z,100162
2019-06-20T09:15:36.352Z,100153
2019-06-20T09:18:05.944Z,100153
2019-06-20T09:20:34.802Z,100153
2019-06-20T09:23:03.634Z,100150
2019-06-20T09:25:33.220Z,100156
2019-06-20T09:28:02.612Z,100166
2019-06-20T09:30:30.923Z,100153
2019-06-20T09:33:00.504Z,100159
2019-06-20T09:35:29.344Z,100165
2019-06-20T09:37:59.370Z,100159
2019-06-20T09:40:27.050Z,100155
2019-06-20T09:42:56.458Z,100156
2019-06-20T09:45:24.734Z,100161
2019-06-20T09:47:53.779Z,100152
2019-06-20T09:50:23.143Z,100148
2019-06-20T09:52:53.724Z,100156
2019-06-20T09:55:21.426Z,100149
2019-06-20T09:57:50.787Z,100161
2019-06-20T10:00:19.139Z,100156
2019-06-20T10:02:50.228Z,100162
2019-06-20T10:05:17.556Z,100158
2019-06-20T10:07:47.268Z,100161
2019-06-20T10:10:15.993Z,100163
2019-06-20T10:12:45.227Z,100165
2019-06-20T10:15:19.577Z,100166
2019-06-20T10:17:48.570Z,100172
2019-06-20T10:20:18.016Z,100175
2019-06-20T10:22:47.349Z,100171
2019-06-20T10:25:15.681Z,100177
2019-06-20T10:27:45.996Z,100170
2019-06-20T10:30:14.647Z,100170
2019-06-20T10:32:45.197Z,100166
2019-06-20T10:35:11.848Z,100159
2019-06-20T10:37:40.711Z,100170
2019-06-20T10:40:09.566Z,100175
2019-06-20T10:42:38.393Z,100185
2019-06-20T10:45:07.237Z,100181
2019-06-20T10:47:36.249Z,100191
2019-06-20T10:50:04.933Z,100181
2019-06-20T10:52:34.588Z,100177
2019-06-20T10:55:03.444Z,100185
2019-06-20T10:57:33.010Z,100185
2019-06-20T11:00:01.855Z,100206
2019-06-20T11:02:30.694Z,100190
2019-06-20T11:04:59.566Z,100195
2019-06-20T11:07:28.406Z,100193
2019-06-20T11:09:57.247Z,100208
2019-06-20T11:12:26.079Z,100210
2019-06-20T11:14:54.941Z,100216
2019-06-20T11:17:23.772Z,100212
2019-06-20T11:19:53.362Z,100216
2019-06-20T11:22:22.963Z,100205
2019-06-20T11:24:51.814Z,100201
2019-06-20T11:27:20.679Z,100203
2019-06-20T11:29:49.528Z,100197
2019-06-20T11:32:18.369Z,100195
2019-06-20T11:34:47.548Z,100202
2019-06-20T11:37:16.831Z,100200
2019-06-20T11:39:45.684Z,100196
2019-06-20T11:42:14.504Z,100191
2019-06-20T11:44:43.368Z,100175
2019-06-20T11:47:12.220Z,100180
2019-06-20T11:49:42.440Z,100174
2019-06-20T11:52:09.957Z,100167
2019-06-20T11:54:38.770Z,100161
2019-06-20T11:57:08.365Z,100152
2019-06-20T11:59:37.234Z,100147
2019-06-20T12:02:06.081Z,100145
2019-06-20T12:04:35.660Z,100129
2019-06-20T12:07:05.254Z,100125
2019-06-20T12:09:36.527Z,100138
2019-06-20T12:12:02.956Z,100130
2019-06-20T12:14:31.802Z,100126
2019-06-20T12:17:00.718Z,100132
2019-06-20T12:19:29.584Z,100126
2019-06-20T12:21:58.429Z,100135
2019-06-20T12:24:27.408Z,100136
2019-06-20T12:26:56.126Z,100136
2019-06-20T12:29:24.965Z,100129
2019-06-20T12:31:53.810Z,100139
2019-06-20T12:34:22.648Z,100135
2019-06-20T12:36:51.505Z,100131
2019-06-20T12:39:20.332Z,100140
2019-06-20T12:41:50.273Z,100141
2019-06-20T12:44:18.066Z,100131
2019-06-20T12:46:47.038Z,100135
2019-06-20T12:49:15.757Z,100135
2019-06-20T12:51:44.795Z,100132
2019-06-20T12:54:14.182Z,100127
2019-06-20T12:56:44.017Z,100119
2019-06-20T12:59:12.624Z,100130
2019-06-20T13:01:45.716Z,100128
2019-06-20T13:04:11.046Z,100134
2019-06-20T13:06:40.565Z,100131
2019-06-20T13:09:09.354Z,100125
2019-06-20T13:11:39.416Z,100124
2019-06-20T13:14:07.124Z,100119
2019-06-20T13:16:35.935Z,100118
2019-06-20T13:19:04.782Z,100123
2019-06-20T13:21:33.650Z,100129
2019-06-20T13:24:02.493Z,100121
2019-06-20T13:26:32.084Z,100126
2019-06-20T13:29:04.437Z,100124
2019-06-20T13:31:29.791Z,100119
2019-06-20T13:33:59.384Z,100126
2019-06-20T13:36:28.994Z,100111
2019-06-20T13:38:58.578Z,100114
2019-06-20T13:41:28.038Z,100123
2019-06-20T13:43:57.597Z,100135
2019-06-20T13:46:27.183Z,100135
2019-06-20T13:48:56.025Z,100126
2019-06-20T13:51:24.932Z,100136
2019-06-20T13:53:54.496Z,100127
2019-06-20T13:56:23.356Z,100116
2019-06-20T13:58:52.195Z,100115
2019-06-20T14:01:21.785Z,100120
2019-06-20T14:03:50.865Z,100125
2019-06-20T14:06:19.505Z,100119
2019-06-20T14:08:50.110Z,100115
2019-06-20T14:11:17.932Z,100118
2019-06-20T14:13:49.431Z,100110
2019-06-20T14:16:15.667Z,100109
2019-06-20T14:18:46.399Z,100106
2019-06-20T14:21:13.375Z,100111
2019-06-20T14:23:42.875Z,100107
2019-06-20T14:26:11.086Z,100122
2019-06-20T14:28:39.914Z,100115
2019-06-20T14:31:08.757Z,100130
2019-06-20T14:33:37.602Z,100140
2019-06-20T14:36:06.454Z,100137
2019-06-20T14:38:36.050Z,100134
2019-06-20T14:41:04.915Z,100134
2019-06-20T14:43:33.748Z,100132
2019-06-20T14:46:03.334Z,100127
2019-06-20T14:48:32.916Z,100125
2019-06-20T14:51:01.764Z,100124
2019-06-20T14:53:30.630Z,100119
2019-06-20T14:55:59.471Z,100109
2019-06-20T14:58:28.322Z,100108
2019-06-20T15:00:57.907Z,100100
2019-06-20T15:06:05.237Z,100111
2019-06-20T15:08:34.089Z,100115
2019-06-20T15:11:02.975Z,100106
2019-06-20T15:13:31.813Z,100118
2019-06-20T15:16:00.646Z,100117
2019-06-20T15:18:29.489Z,100114
2019-06-20T15:20:59.522Z,100117
2019-06-20T15:23:28.417Z,100125
2019-06-20T15:25:57.256Z,100116
2019-06-20T15:28:26.108Z,100120
2019-06-20T15:30:54.948Z,100122
2019-06-20T15:33:24.533Z,100111
2019-06-20T15:35:54.778Z,100118
2019-06-20T15:38:22.247Z,100120
2019-06-20T15:40:51.556Z,100124
2019-06-20T15:43:19.957Z,100120
2019-06-20T15:45:50.289Z,100135
2019-06-20T15:48:17.650Z,100129
2019-06-20T15:50:47.261Z,100135
2019-06-20T15:53:16.074Z,100133
2019-06-20T15:55:44.919Z,100140
2019-06-20T15:58:13.754Z,100138
2019-06-20T16:00:42.593Z,100135
2019-06-20T16:03:14.541Z,100125
2019-06-20T16:05:41.041Z,100126
2019-06-20T16:08:10.673Z,100132
2019-06-20T16:10:39.504Z,100135
2019-06-20T16:13:08.332Z,100144
2019-06-20T16:15:37.152Z,100146
2019-06-20T16:18:06.010Z,100142
2019-06-20T16:20:35.614Z,100139
2019-06-20T16:23:05.190Z,100147
2019-06-20T16:25:34.060Z,100142
2019-06-20T16:28:02.895Z,100138
2019-06-20T16:30:33.781Z,100141
2019-06-20T16:33:01.317Z,100132
2019-06-20T16:35:30.146Z,100134
2019-06-20T16:37:58.994Z,100126
2019-06-20T16:43:08.152Z,100129
2019-06-20T16:45:37.025Z,100128
2019-06-20T16:48:05.828Z,100129
2019-06-20T16:50:34.680Z,100131
2019-06-20T16:53:03.525Z,100131
2019-06-20T16:55:32.370Z,100123
2019-06-20T16:58:01.194Z,100121
2019-06-20T17:00:30.040Z,100117
2019-06-20T17:02:58.888Z,100112
2019-06-20T17:05:27.787Z,100121
2019-06-20T17:07:56.681Z,100119
2019-06-20T17:10:25.424Z,100122
2019-06-20T17:12:54.271Z,100128
2019-06-20T17:15:23.130Z,100145
2019-06-20T17:17:51.985Z,100149
2019-06-20T17:20:20.837Z,100144
2019-06-20T17:22:49.712Z,100147
2019-06-20T17:25:18.551Z,100141
2019-06-20T17:27:47.374Z,100148
2019-06-20T17:30:16.233Z,100149
2019-06-20T17:32:45.079Z,100150
2019-06-20T17:35:13.925Z,100164
2019-06-20T17:37:45.055Z,100173
2019-06-20T17:40:12.585Z,100180
2019-06-20T17:42:41.427Z,100167
2019-06-20T17:45:10.330Z,100173
2019-06-20T17:47:39.916Z,100178
2019-06-20T17:50:08.801Z,100183
2019-06-20T17:52:37.642Z,100181
2019-06-20T17:55:07.293Z,100184
2019-06-20T17:57:36.155Z,100191
2019-06-20T18:00:09.102Z,100190
2019-06-20T18:02:38.572Z,100190
2019-06-20T18:05:07.488Z,100193
2019-06-20T18:07:36.347Z,100187
2019-06-20T18:10:05.242Z,100192
2019-06-20T18:12:34.070Z,100198
2019-06-20T18:15:02.925Z,100193
2019-06-20T18:17:31.784Z,100204
2019-06-20T18:20:00.647Z,100205
2019-06-20T18:22:29.482Z,100205
2019-06-20T18:24:58.321Z,100212
2019-06-20T18:27:27.186Z,100215
2019-06-20T18:29:56.043Z,100212
2019-06-20T18:32:25.645Z,100218
2019-06-20T18:35:01.742Z,100220
2019-06-20T18:37:31.288Z,100218
2019-06-20T18:39:53.792Z,100239
2019-06-20T18:42:22.669Z,100229
2019-06-20T18:44:51.612Z,100243
2019-06-20T18:47:21.963Z,100251
2019-06-20T18:49:49.206Z,100250
2019-06-20T18:52:18.047Z,100258
2019-06-20T18:54:47.491Z,100251
2019-06-20T18:57:17.762Z,100259
2019-06-20T18:59:46.788Z,100265
2019-06-20T19:02:16.536Z,100266
2019-06-20T19:04:50.703Z,100268
2019-06-20T19:07:16.426Z,100276
2019-06-20T19:09:45.318Z,100276
2019-06-20T19:12:15.183Z,100280
2019-06-20T19:14:44.939Z,100289
2019-06-20T19:17:14.871Z,100299
2019-06-20T19:19:43.408Z,100304
2019-06-20T19:22:12.262Z,100294
2019-06-20T19:27:23.051Z,100324
2019-06-20T19:29:51.988Z,100308
2019-06-20T19:32:20.821Z,100317
2019-06-20T19:35:01.295Z,100325
2019-06-20T19:37:18.520Z,100332
2019-06-20T19:39:47.566Z,100334
2019-06-20T19:42:16.361Z,100335
2019-06-20T19:44:45.389Z,100343
2019-06-20T19:47:14.152Z,100342
2019-06-20T19:49:43.016Z,100351
2019-06-20T19:52:12.598Z,100350
2019-06-20T19:54:41.475Z,100342
2019-06-20T19:57:10.317Z,100352
2019-06-20T19:59:39.931Z,100361
2019-06-20T20:02:10.100Z,100364
2019-06-20T20:04:40.315Z,100362
2019-06-20T20:07:09.233Z,100366
2019-06-20T20:09:38.061Z,100375
2019-06-20T20:12:07.000Z,100378
2019-06-20T20:14:36.773Z,100385
2019-06-20T20:17:05.701Z,100386
2019-06-20T20:19:34.542Z,100387
2019-06-20T20:22:06.458Z,100387
2019-06-20T20:24:32.247Z,100387
2019-06-20T20:27:01.489Z,100385
2019-06-20T20:29:30.323Z,100389
2019-06-20T20:31:59.178Z,100387
2019-06-20T20:34:28.634Z,100395
2019-06-20T20:36:57.500Z,100393
2019-06-20T20:39:26.326Z,100396
2019-06-20T20:41:55.172Z,100399
2019-06-20T20:44:24.789Z,100405
2019-06-20T20:46:53.601Z,100409
2019-06-20T20:49:22.454Z,100401
2019-06-20T20:51:51.332Z,100402
2019-06-20T20:54:20.162Z,100410
2019-06-20T20:56:49.007Z,100407
2019-06-20T20:59:18.429Z,100403
2019-06-20T21:01:48.018Z,100408
2019-06-20T21:04:16.874Z,100402
2019-06-20T21:06:45.701Z,100401
2019-06-20T21:09:14.567Z,100410
2019-06-20T21:11:44.015Z,100401
2019-06-20T21:14:12.278Z,100410
2019-06-20T21:16:41.137Z,100405
2019-06-20T21:19:09.984Z,100412
2019-06-20T21:21:38.827Z,100415
2019-06-20T21:24:07.670Z,100419
2019-06-20T21:26:48.802Z,100415
2019-06-20T21:29:06.139Z,100417
2019-06-20T21:31:35.741Z,100431
2019-06-20T21:34:05.336Z,100423
2019-06-20T21:36:34.178Z,100434
2019-06-20T21:39:03.080Z,100445
2019-06-20T21:41:31.889Z,100445
2019-06-20T21:44:00.741Z,100451
2019-06-20T21:46:29.592Z,100451
2019-06-20T21:48:58.447Z,100451
2019-06-20T21:51:27.309Z,100453
2019-06-20T21:53:56.132Z,100461
2019-06-20T21:56:24.964Z,100463
2019-06-20T21:58:53.823Z,100465
2019-06-20T22:01:22.671Z,100453
2019-06-20T22:03:51.501Z,100451
2019-06-20T22:06:24.068Z,100453
2019-06-20T22:08:49.172Z,100449
2019-06-20T22:11:18.028Z,100460
2019-06-20T22:13:46.899Z,100462
2019-06-20T22:16:15.755Z,100462
2019-06-20T22:18:44.595Z,100463
2019-06-20T22:21:13.454Z,100474
2019-06-20T22:23:43.019Z,100477
2019-06-20T22:26:11.863Z,100473
2019-06-20T22:28:40.700Z,100478
2019-06-20T22:31:09.546Z,100481
2019-06-20T22:33:38.390Z,100490
2019-06-20T22:36:07.846Z,100484
2019-06-20T22:38:36.704Z,100481
2019-06-20T22:41:05.575Z,100482
2019-06-20T22:43:34.403Z,100476
2019-06-20T22:46:03.252Z,100486
2019-06-20T22:48:32.099Z,100481
2019-06-20T22:51:00.940Z,100484
2019-06-20T22:53:29.807Z,100484
2019-06-20T22:55:58.635Z,100486
2019-06-20T22:58:28.210Z,100481
2019-06-20T23:00:57.066Z,100477
2019-06-20T23:03:25.909Z,100476
2019-06-20T23:05:55.500Z,100485
2019-06-20T23:08:24.353Z,100491
2019-06-20T23:10:53.183Z,100490
2019-06-20T23:13:22.610Z,100498
2019-06-20T23:15:51.446Z,100498
2019-06-20T23:18:20.278Z,100500
2019-06-20T23:21:04.047Z,100494
2019-06-20T23:23:18.713Z,100500
2019-06-20T23:25:47.579Z,100492
2019-06-20T23:28:16.435Z,100489
2019-06-20T23:30:45.290Z,100485
2019-06-20T23:33:14.155Z,100488
2019-06-20T23:35:42.999Z,100484
2019-06-20T23:38:11.849Z,100483
2019-06-20T23:40:40.684Z,100495
2019-06-20T23:43:09.545Z,100486
2019-06-20T23:45:38.393Z,100498
2019-06-20T23:48:07.232Z,100495
2019-06-20T23:50:36.086Z,100500
2019-06-20T23:53:05.017Z,100504
2019-06-20T23:55:33.876Z,100512
2019-06-20T23:58:02.722Z,100522
